Time;durP1;ratioP1;P1;durP2;ratioP2;P2;SDS_P1;SDS_P2;PMS_P1;PMS_P2;Temp;Humidity;BMP_temperature;BMP_pressure;BME280_temperature;BME280_humidity;BME280_pressure;Samples;Min_cycle;Max_cycle;Signal;HPM_P1;HPM_P2
2022/03/02 00:01:50;;;;;;;8.90;5.50;;;;;;;3.06;85.21;101634.44;5029974;28;20172;-83
2022/03/02 00:04:16;;;;;;;8.40;6.00;;;;;;;2.76;85.15;101583.09;5035239;28;20196;-82
2022/03/02 00:06:43;;;;;;;9.97;6.53;;;;;;;2.97;84.83;101620.53;5036880;28;20251;-82
2022/03/02 00:09:08;;;;;;;12.13;6.10;;;;;;;2.99;85.66;101627.63;5028837;28;20168;-82
2022/03/02 00:11:34;;;;;;;7.13;5.07;;;;;;;2.70;85.39;101575.56;5027401;28;20184;-82
2022/03/02 00:14:00;;;;;;;7.07;5.13;;;;;;;2.91;85.99;101607.03;5026581;28;20219;-82
2022/03/02 00:16:28;;;;;;;6.33;4.97;;;;;;;2.98;85.08;101625.78;5023059;28;20191;-82
2022/03/02 00:18:55;;;;;;;11.03;7.27;;;;;;;2.97;85.95;101623.97;5014353;28;20177;-84
2022/03/02 00:21:20;;;;;;;14.83;7.07;;;;;;;2.99;85.23;101617.50;5017865;28;20242;-83
2022/03/02 00:23:46;;;;;;;13.90;7.40;;;;;;;2.91;86.26;101597.81;5021639;28;20676;-82
2022/03/02 00:26:12;;;;;;;8.70;5.33;;;;;;;2.94;84.60;101607.47;5033722;28;20199;-82
2022/03/02 00:28:37;;;;;;;7.83;4.77;;;;;;;2.94;85.94;101597.34;5025910;28;20180;-81
2022/03/02 00:31:03;;;;;;;5.93;4.67;;;;;;;2.97;85.39;101603.72;5017611;28;20212;-82
2022/03/02 00:33:29;;;;;;;6.17;4.43;;;;;;;3.00;86.68;101601.59;5022942;28;20177;-82
2022/03/02 00:35:54;;;;;;;6.47;3.97;;;;;;;2.83;86.11;101564.56;5022524;28;20153;-81
2022/03/02 00:38:20;;;;;;;6.67;4.67;;;;;;;3.02;85.59;101591.66;5020822;28;20219;-82
2022/03/02 00:40:45;;;;;;;5.67;4.23;;;;;;;3.01;85.77;101588.22;5013075;28;20223;-83
2022/03/02 00:43:12;;;;;;;4.87;3.90;;;;;;;3.03;85.62;101592.59;5013848;28;20180;-82
2022/03/02 00:45:38;;;;;;;6.73;4.63;;;;;;;2.85;86.02;101561.56;5012500;28;20213;-82
2022/03/02 00:48:06;;;;;;;8.33;5.10;;;;;;;3.01;87.52;101584.78;5011821;28;20740;-83
2022/03/02 00:50:33;;;;;;;5.83;4.10;;;;;;;2.98;87.17;101574.25;5011876;28;20173;-83
2022/03/02 00:52:59;;;;;;;5.97;4.13;;;;;;;3.00;86.77;101578.81;5012594;28;20208;-82
2022/03/02 00:55:25;;;;;;;5.27;4.30;;;;;;;3.01;86.06;101580.63;5012120;28;20228;-84
2022/03/02 00:57:51;;;;;;;5.93;4.47;;;;;;;3.03;86.04;101579.94;5012001;28;20200;-82
2022/03/02 01:00:16;;;;;;;6.90;4.60;;;;;;;3.03;87.92;101583.38;5011880;28;20188;-81
2022/03/02 01:02:42;;;;;;;5.50;4.40;;;;;;;2.95;88.50;101558.63;5011707;28;20183;-83
2022/03/02 01:05:09;;;;;;;8.70;4.77;;;;;;;3.07;88.09;101569.50;5011866;28;20556;-83
2022/03/02 01:07:36;;;;;;;7.13;4.73;;;;;;;3.09;88.21;101568.13;5011858;28;20173;-83
2022/03/02 01:10:04;;;;;;;6.97;4.97;;;;;;;3.06;88.39;101553.41;5012153;28;20180;-83
2022/03/02 01:12:30;;;;;;;11.03;5.90;;;;;;;3.14;88.66;101562.03;5011827;28;20177;-83
2022/03/02 01:14:55;;;;;;;12.90;5.10;;;;;;;3.13;88.23;101558.59;5012338;28;20687;-83
2022/03/02 01:17:21;;;;;;;8.90;5.53;;;;;;;3.17;88.63;101549.78;5012357;28;20541;-83
2022/03/02 01:19:48;;;;;;;8.50;5.70;;;;;;;3.20;87.00;101552.72;5011930;28;20177;-83
2022/03/02 01:22:14;;;;;;;11.20;5.70;;;;;;;3.20;86.56;101547.66;5011504;28;20187;-84
2022/03/02 01:24:40;;;;;;;10.00;5.60;;;;;;;3.14;86.46;101537.59;5012181;28;20185;-83
2022/03/02 01:27:05;;;;;;;7.27;5.17;;;;;;;3.21;85.83;101540.28;5012567;28;20261;-84
2022/03/02 01:29:34;;;;;;;8.17;5.00;;;;;;;3.28;85.79;101542.00;5013307;28;20234;-84
2022/03/02 01:32:03;;;;;;;6.80;4.80;;;;;;;3.26;85.89;101534.91;5011040;28;20268;-82
2022/03/02 01:34:29;;;;;;;8.70;5.43;;;;;;;3.17;85.92;101520.28;5019010;28;20196;-82
2022/03/02 01:36:54;;;;;;;8.17;5.77;;;;;;;3.26;85.67;101539.97;5024255;28;20173;-84
2022/03/02 01:39:19;;;;;;;12.57;6.30;;;;;;;3.30;85.24;101544.72;5012731;28;20696;-81
2022/03/02 01:41:45;;;;;;;10.23;6.47;;;;;;;3.23;86.22;101531.25;5011974;28;20216;-84
2022/03/02 01:44:11;;;;;;;11.03;7.13;;;;;;;3.23;86.63;101540.47;5012492;28;20191;-83
2022/03/02 01:46:37;;;;;;;9.57;6.50;;;;;;;3.15;87.01;101539.44;5024568;28;20177;-83
2022/03/02 01:49:03;;;;;;;8.57;6.33;;;;;;;2.94;87.18;101513.78;5016898;28;20255;-82
2022/03/02 01:51:29;;;;;;;7.43;5.10;;;;;;;2.99;89.31;101520.34;5011911;28;20169;-83
2022/03/02 01:53:56;;;;;;;9.23;6.93;;;;;;;3.02;89.54;101523.31;5015289;28;20218;-82
2022/03/02 01:56:21;;;;;;;8.40;5.97;;;;;;;2.89;90.24;101519.84;5015264;28;20184;-82
2022/03/02 01:58:47;;;;;;;10.37;7.10;;;;;;;2.72;90.75;101503.31;5014980;28;20551;-83
2022/03/02 02:01:16;;;;;;;9.30;6.37;;;;;;;2.76;92.34;101510.59;5014982;28;20180;-84
2022/03/02 02:03:42;;;;;;;8.67;6.50;;;;;;;2.77;92.67;101511.50;5014829;28;20268;-84
2022/03/02 02:06:08;;;;;;;10.20;7.27;;;;;;;2.84;93.41;101509.13;5014824;28;20648;-82
2022/03/02 02:08:34;;;;;;;12.50;7.97;;;;;;;2.67;93.62;101468.88;5014758;28;20185;-83
2022/03/02 02:11:00;;;;;;;15.97;10.80;;;;;;;2.96;93.60;101507.28;5015104;28;20173;-83
2022/03/02 02:13:27;;;;;;;16.47;9.13;;;;;;;3.04;92.86;101506.72;5014211;28;20250;-83
2022/03/02 02:15:54;;;;;;;13.90;9.37;;;;;;;3.00;92.97;101500.31;5014810;28;20280;-82
2022/03/02 02:18:20;;;;;;;15.10;10.17;;;;;;;2.97;93.09;101491.41;5014976;28;20168;-85
2022/03/02 02:20:46;;;;;;;12.70;9.33;;;;;;;3.00;92.68;101482.59;5014983;28;20177;-83
2022/03/02 02:23:12;;;;;;;17.20;11.20;;;;;;;3.07;93.07;101491.91;5016151;28;20172;-84
2022/03/02 02:25:38;;;;;;;16.30;11.50;;;;;;;3.09;92.88;101492.16;5018442;28;20177;-83
2022/03/02 02:28:03;;;;;;;16.13;10.00;;;;;;;3.11;92.02;101490.72;5021141;28;20176;-83
2022/03/02 02:30:30;;;;;;;16.47;10.27;;;;;;;3.11;93.61;101488.19;5021962;28;20179;-84
2022/03/02 02:32:56;;;;;;;15.20;10.97;;;;;;;3.16;93.64;101495.69;5023016;28;20191;-84
2022/03/02 02:35:22;;;;;;;16.57;11.63;;;;;;;3.09;93.11;101495.59;5024988;28;20211;-83
2022/03/02 02:37:48;;;;;;;16.47;10.90;;;;;;;3.05;93.04;101493.31;5025542;28;20177;-81
2022/03/02 02:40:20;;;;;;;18.23;12.30;;;;;;;3.08;93.98;101498.81;5019055;28;20192;-83
2022/03/02 02:42:47;;;;;;;21.07;13.37;;;;;;;3.06;94.07;101492.66;5021556;28;20177;-84
2022/03/02 02:45:20;;;;;;;21.20;13.27;;;;;;;3.02;94.06;101495.44;5030890;28;20203;-82
2022/03/02 02:47:46;;;;;;;19.47;12.37;;;;;;;2.92;94.07;101468.00;5022813;28;20236;-83
2022/03/02 02:50:18;;;;;;;22.13;13.07;;;;;;;3.04;93.83;101495.66;5015452;28;20173;-82
2022/03/02 02:52:43;;;;;;;20.77;13.93;;;;;;;2.92;94.71;101482.28;5014475;28;20165;-83
2022/03/02 02:55:11;;;;;;;21.60;13.73;;;;;;;2.89;95.45;101490.38;5021922;28;20414;-82
2022/03/02 02:57:36;;;;;;;24.17;14.97;;;;;;;2.92;95.26;101485.72;5025819;28;20188;-83
2022/03/02 03:00:06;;;;;;;23.97;14.53;;;;;;;2.97;95.67;101484.72;5017593;28;20172;-82
2022/03/02 03:02:31;;;;;;;24.33;15.37;;;;;;;2.99;95.22;101475.72;5014325;28;20211;-84
2022/03/02 03:04:56;;;;;;;25.27;15.90;;;;;;;3.07;95.05;101479.25;5012851;28;20204;-82
2022/03/02 03:07:22;;;;;;;25.17;15.23;;;;;;;3.08;95.28;101476.00;5013550;28;20185;-82
2022/03/02 03:09:47;;;;;;;25.67;16.43;;;;;;;3.11;94.73;101476.41;5013677;28;20196;-82
2022/03/02 03:12:13;;;;;;;31.03;19.13;;;;;;;3.11;94.18;101480.56;5013494;28;20887;-84
2022/03/02 03:14:39;;;;;;;32.93;19.57;;;;;;;3.16;94.49;101474.50;5013618;28;20208;-83
2022/03/02 03:17:04;;;;;;;27.77;16.87;;;;;;;3.09;94.50;101454.16;5013344;28;20231;-84
2022/03/02 03:19:30;;;;;;;30.47;17.90;;;;;;;3.12;94.62;101452.03;5012095;28;20250;-83
2022/03/02 03:22:03;;;;;;;32.00;18.57;;;;;;;3.20;95.06;101471.66;5013736;28;20176;-82
2022/03/02 03:24:28;;;;;;;27.23;16.20;;;;;;;3.17;95.02;101464.56;5013608;28;20169;-82
2022/03/02 03:26:55;;;;;;;31.00;17.13;;;;;;;3.23;94.63;101456.88;5013436;28;20215;-83
2022/03/02 03:29:21;;;;;;;26.87;16.43;;;;;;;3.28;93.28;101460.94;5013323;28;20176;-83
2022/03/02 03:31:48;;;;;;;25.90;17.03;;;;;;;3.29;93.70;101471.97;5013439;28;20573;-83
2022/03/02 03:34:13;;;;;;;27.47;16.87;;;;;;;3.30;93.57;101456.97;5013300;28;20208;-82
2022/03/02 03:36:39;;;;;;;27.10;16.27;;;;;;;3.36;93.41;101460.31;5013086;28;20177;-83
2022/03/02 03:39:04;;;;;;;27.03;17.40;;;;;;;3.34;92.38;101456.69;5013072;28;20219;-82
2022/03/02 03:41:30;;;;;;;27.67;16.80;;;;;;;3.37;93.17;101451.13;5013513;28;20272;-83
2022/03/02 03:43:56;;;;;;;30.83;17.63;;;;;;;3.35;92.96;101453.44;5012676;28;20238;-83
2022/03/02 03:46:21;;;;;;;31.13;17.43;;;;;;;3.43;93.22;101457.00;5013513;28;20188;-83
2022/03/02 03:48:47;;;;;;;31.47;18.27;;;;;;;3.39;93.21;101444.59;5011600;28;20225;-82
2022/03/02 03:51:13;;;;;;;27.70;16.90;;;;;;;3.44;93.04;101447.03;5013444;28;20185;-82
2022/03/02 03:53:38;;;;;;;32.03;19.67;;;;;;;3.43;92.82;101440.16;5013708;28;20239;-82
2022/03/02 03:56:04;;;;;;;34.60;19.97;;;;;;;3.32;92.87;101412.50;5027694;28;20176;-81
2022/03/02 03:58:30;;;;;;;35.17;21.00;;;;;;;3.46;92.23;101440.56;5013709;28;20176;-81
2022/03/02 04:00:58;;;;;;;33.90;19.37;;;;;;;3.45;91.88;101438.72;5013129;28;20180;-82
2022/03/02 04:03:25;;;;;;;29.33;18.30;;;;;;;3.52;92.61;101439.53;5013383;28;20173;-82
2022/03/02 04:05:51;;;;;;;33.37;19.53;;;;;;;3.49;93.00;101442.59;5019371;28;20206;-82
2022/03/02 04:08:17;;;;;;;32.00;19.30;;;;;;;3.48;92.70;101443.28;5020681;28;20192;-82
2022/03/02 04:10:45;;;;;;;31.73;19.30;;;;;;;3.48;92.33;101439.13;5013113;28;20192;-82
2022/03/02 04:13:11;;;;;;;33.53;20.17;;;;;;;3.53;92.39;101432.13;5012900;28;20259;-83
2022/03/02 04:15:37;;;;;;;41.47;22.80;;;;;;;3.50;92.30;101423.22;5011262;28;20204;-83
2022/03/02 04:18:03;;;;;;;36.80;20.10;;;;;;;3.56;92.25;101437.59;5011951;28;20272;-83
2022/03/02 04:20:29;;;;;;;34.80;19.63;;;;;;;3.59;92.16;101432.03;5013284;28;20227;-83
2022/03/02 04:22:56;;;;;;;37.73;21.07;;;;;;;3.55;91.92;101424.72;5013546;28;20533;-83
2022/03/02 04:25:21;;;;;;;34.67;19.67;;;;;;;3.51;92.30;101433.53;5016196;28;20699;-84
2022/03/02 04:27:47;;;;;;;31.20;18.83;;;;;;;3.39;91.79;101409.13;5019997;28;20176;-82
2022/03/02 04:30:13;;;;;;;28.67;17.40;;;;;;;3.42;92.87;101418.03;5023746;28;20181;-84
2022/03/02 04:32:39;;;;;;;32.37;19.17;;;;;;;3.41;93.31;101417.88;5025062;28;20187;-82
2022/03/02 04:35:07;;;;;;;33.87;18.93;;;;;;;3.45;92.49;101420.97;5026888;28;20204;-83
2022/03/02 04:37:32;;;;;;;37.40;21.00;;;;;;;3.42;93.34;101409.53;5031424;28;20182;-85
2022/03/02 04:39:58;;;;;;;36.17;20.20;;;;;;;3.47;92.97;101408.53;5035734;28;20196;-84
2022/03/02 04:42:23;;;;;;;33.27;19.27;;;;;;;3.45;93.51;101408.31;5036323;28;20180;-84
2022/03/02 04:44:49;;;;;;;41.27;22.33;;;;;;;3.47;93.04;101404.38;5037929;28;20157;-84
2022/03/02 04:47:14;;;;;;;61.43;33.80;;;;;;;3.46;92.34;101411.78;5038371;28;20178;-81
2022/03/02 04:49:40;;;;;;;39.80;23.00;;;;;;;3.40;92.48;101398.31;5037898;28;20200;-79
2022/03/02 04:52:06;;;;;;;36.17;21.37;;;;;;;3.40;92.73;101400.84;5038405;28;20185;-78
2022/03/02 04:57:16;;;;;;;34.23;20.23;;;;;;;3.39;93.29;101402.44;5018437;28;20367;-79
2022/03/02 04:59:42;;;;;;;37.00;20.17;;;;;;;3.44;92.32;101414.09;5017898;28;20177;-82
2022/03/02 05:02:07;;;;;;;33.83;19.50;;;;;;;3.46;92.86;101405.09;5017788;28;20201;-82
2022/03/02 05:04:33;;;;;;;32.63;18.77;;;;;;;3.49;92.45;101409.66;5018415;28;20184;-77
2022/03/02 05:06:58;;;;;;;37.23;22.60;;;;;;;3.36;92.03;101398.59;5016112;28;20178;-84
2022/03/02 05:09:24;;;;;;;61.60;31.83;;;;;;;3.34;92.92;101400.06;5014712;28;20168;-82
2022/03/02 05:11:50;;;;;;;34.33;20.20;;;;;;;3.36;94.00;101407.09;4999759;28;20661;-82
2022/03/02 05:14:16;;;;;;;31.90;19.73;;;;;;;3.32;94.32;101415.03;4994644;28;20252;-83
2022/03/02 05:16:42;;;;;;;45.73;26.10;;;;;;;3.36;94.02;101408.75;5000176;28;20176;-83
2022/03/02 05:19:07;;;;;;;38.30;22.30;;;;;;;3.28;94.27;101394.19;4993426;28;20256;-82
2022/03/02 05:21:33;;;;;;;38.40;23.47;;;;;;;3.32;93.73;101398.94;4990166;28;20177;-81
2022/03/02 05:23:59;;;;;;;43.70;23.17;;;;;;;3.36;93.99;101406.22;4991905;28;20177;-85
2022/03/02 05:26:24;;;;;;;36.63;21.00;;;;;;;3.28;93.41;101392.56;4992039;28;20173;-83
2022/03/02 05:28:50;;;;;;;40.93;21.87;;;;;;;3.05;92.77;101345.56;4995367;28;20212;-84
2022/03/02 05:31:17;;;;;;;36.60;22.03;;;;;;;3.41;93.50;101407.72;4995301;28;20181;-84
2022/03/02 05:33:43;;;;;;;38.73;21.37;;;;;;;3.29;92.96;101401.97;4996011;28;20165;-83
2022/03/02 05:36:09;;;;;;;38.73;22.03;;;;;;;3.29;95.05;101407.03;4996867;28;20181;-85
2022/03/02 05:38:34;;;;;;;40.10;23.70;;;;;;;3.42;96.05;101407.00;4996383;28;20177;-84
2022/03/02 05:41:01;;;;;;;38.90;21.90;;;;;;;3.46;95.56;101402.56;4996639;28;20676;-82
2022/03/02 05:43:28;;;;;;;37.87;22.60;;;;;;;3.53;96.41;101393.22;4996891;28;20173;-85
2022/03/02 05:45:53;;;;;;;44.27;24.00;;;;;;;3.64;95.08;101391.34;4996559;28;20177;-84
2022/03/02 05:48:19;;;;;;;39.03;22.70;;;;;;;3.73;93.36;101401.75;4996383;28;20286;-86
2022/03/02 05:50:45;;;;;;;41.50;24.27;;;;;;;3.59;93.09;101368.69;4996786;28;20221;-86
2022/03/02 05:53:10;;;;;;;37.50;22.47;;;;;;;3.79;93.04;101399.13;5012401;28;20181;-87
2022/03/02 05:55:36;;;;;;;40.87;23.57;;;;;;;3.79;93.83;101404.19;4996292;28;20197;-86
2022/03/02 05:58:03;;;;;;;36.97;21.10;;;;;;;3.77;93.23;101401.47;4996767;28;20189;-88
2022/03/02 06:00:28;;;;;;;34.70;20.33;;;;;;;3.77;93.42;101396.41;4996068;28;20181;-89
2022/03/02 06:02:54;;;;;;;37.87;20.77;;;;;;;3.78;93.89;101405.81;4996560;28;20272;-85
2022/03/02 06:05:19;;;;;;;33.97;20.67;;;;;;;3.73;93.54;101398.31;4998921;28;20213;-89
2022/03/02 06:07:45;;;;;;;32.50;19.87;;;;;;;3.71;94.44;101410.81;4996902;28;20174;-86
2022/03/02 06:10:16;;;;;;;34.13;20.60;;;;;;;3.59;95.55;101392.38;4996481;28;20196;-87
2022/03/02 06:12:42;;;;;;;31.50;18.43;;;;;;;3.48;95.83;101375.78;4997599;28;20197;-86
2022/03/02 06:15:08;;;;;;;34.40;19.47;;;;;;;3.72;94.74;101396.50;5001793;28;20220;-87
2022/03/02 06:17:34;;;;;;;38.63;20.90;;;;;;;3.76;94.32;101401.25;5012882;28;20723;-87
2022/03/02 06:20:00;;;;;;;38.37;21.33;;;;;;;3.64;96.16;101387.91;4998171;28;20224;-88
2022/03/02 06:22:28;;;;;;;35.03;21.33;;;;;;;3.77;95.61;101404.00;4997262;28;20634;-86
2022/03/02 06:24:57;;;;;;;32.83;20.77;;;;;;;3.78;94.59;101398.22;5000781;28;20181;-91
2022/03/02 06:27:23;;;;;;;34.60;19.60;;;;;;;3.75;95.91;101379.16;5013442;28;20169;-87
2022/03/02 06:29:49;;;;;;;39.37;21.57;;;;;;;3.86;94.68;101401.72;5005546;28;20186;-88
2022/03/02 06:32:16;;;;;;;42.67;22.97;;;;;;;3.92;94.91;101405.97;4998313;28;20180;-87
2022/03/02 06:34:42;;;;;;;43.80;24.10;;;;;;;3.97;93.19;101398.03;4996903;28;20200;-83
2022/03/02 06:37:08;;;;;;;44.13;25.47;;;;;;;3.94;92.91;101399.47;4995642;28;20662;-86
2022/03/02 06:39:36;;;;;;;48.27;26.33;;;;;;;3.61;92.98;101344.41;4995567;28;20284;-85
2022/03/02 06:42:30;;;;;;;48.20;25.90;;;;;;;3.83;92.37;101393.72;4995635;28;20205;-87
2022/03/02 06:45:03;;;;;;;52.23;26.37;;;;;;;3.89;93.65;101400.53;4993011;28;20221;-86
2022/03/02 06:47:36;;;;;;;55.80;30.37;;;;;;;3.84;93.89;101395.56;4994014;28;20265;-86
2022/03/02 06:50:06;;;;;;;47.43;26.80;;;;;;;3.83;94.15;101401.31;4979391;28;20280;-83
2022/03/02 06:52:40;;;;;;;46.27;26.37;;;;;;;3.72;93.69;101392.34;4996524;28;20177;-85
2022/03/02 06:55:15;;;;;;;48.03;26.07;;;;;;;3.71;94.25;101398.16;4999106;28;20217;-83
2022/03/02 06:57:50;;;;;;;51.87;27.37;;;;;;;3.70;94.55;101392.13;5004254;28;20212;-82
2022/03/02 07:00:16;;;;;;;46.97;25.73;;;;;;;3.71;94.04;101380.41;5001279;28;20173;-83
2022/03/02 07:02:52;;;;;;;44.00;24.33;;;;;;;3.84;93.43;101398.09;5000493;28;20177;-81
2022/03/02 07:05:19;;;;;;;39.73;22.13;;;;;;;3.72;94.81;101389.81;5000143;28;20669;-83
2022/03/02 07:07:47;;;;;;;41.57;21.93;;;;;;;3.86;94.16;101397.59;4998646;28;20181;-83
2022/03/02 07:10:13;;;;;;;40.30;22.70;;;;;;;3.89;94.22;101391.97;4994971;28;20243;-82
2022/03/02 07:12:40;;;;;;;46.63;25.33;;;;;;;3.90;92.45;101398.88;4995328;28;20177;-84
2022/03/02 07:15:06;;;;;;;35.77;21.13;;;;;;;3.89;92.77;101392.91;4996539;28;20212;-83
2022/03/02 07:17:32;;;;;;;38.97;21.67;;;;;;;3.89;92.22;101381.81;4996605;28;20173;-83
2022/03/02 07:20:04;;;;;;;40.97;22.67;;;;;;;3.83;92.51;101365.84;4997127;28;20215;-84
2022/03/02 07:22:36;;;;;;;36.97;20.60;;;;;;;3.86;92.97;101379.84;5012355;28;20177;-83
2022/03/02 07:25:14;;;;;;;40.43;22.80;;;;;;;4.03;92.76;101383.63;5001970;28;20174;-83
2022/03/02 07:27:40;;;;;;;43.13;23.83;;;;;;;3.98;92.88;101377.03;5007409;28;20161;-84
2022/03/02 07:30:08;;;;;;;41.97;23.63;;;;;;;4.02;92.42;101385.25;5003215;28;20177;-81
2022/03/02 07:32:36;;;;;;;41.53;22.47;;;;;;;4.08;90.83;101390.16;5006377;28;20166;-81
2022/03/02 07:35:05;;;;;;;45.93;24.90;;;;;;;3.98;89.93;101385.53;5007503;28;20216;-82
2022/03/02 07:37:31;;;;;;;39.40;22.70;;;;;;;3.93;91.84;101384.97;5014282;28;20181;-84
2022/03/02 07:39:57;;;;;;;43.83;22.37;;;;;;;3.88;92.22;101377.47;5015098;28;20197;-84
2022/03/02 07:42:23;;;;;;;41.23;22.30;;;;;;;3.77;91.97;101375.19;5017174;28;20277;-82
2022/03/02 07:44:49;;;;;;;41.90;23.50;;;;;;;3.81;93.60;101372.34;5018316;28;20237;-83
2022/03/02 07:47:16;;;;;;;41.47;23.23;;;;;;;3.74;94.49;101370.66;5014916;28;20185;-84
2022/03/02 07:49:42;;;;;;;39.20;21.93;;;;;;;3.78;95.15;101377.94;5014172;28;20225;-82
2022/03/02 07:52:09;;;;;;;39.47;21.90;;;;;;;3.79;92.84;101367.06;5013519;28;20204;-83
2022/03/02 07:54:37;;;;;;;38.87;20.73;;;;;;;3.80;92.94;101371.44;5012801;28;20205;-82
2022/03/02 07:57:05;;;;;;;48.17;26.27;;;;;;;3.80;93.59;101367.97;5011572;28;20173;-83
2022/03/02 07:59:36;;;;;;;49.17;25.60;;;;;;;3.78;92.81;101364.34;5012761;28;20184;-83
2022/03/02 08:02:07;;;;;;;50.10;26.83;;;;;;;3.80;94.30;101367.97;5005587;28;20563;-83
2022/03/02 08:04:35;;;;;;;46.23;25.73;;;;;;;3.85;95.02;101365.31;5001488;28;20173;-83
2022/03/02 08:07:01;;;;;;;50.10;25.47;;;;;;;3.86;95.04;101368.75;5000800;28;20178;-83
2022/03/02 08:09:26;;;;;;;48.73;26.07;;;;;;;3.82;96.59;101334.50;5004364;28;20196;-83
2022/03/02 08:11:52;;;;;;;60.33;28.50;;;;;;;3.98;96.49;101352.59;5001808;28;20201;-83
2022/03/02 08:14:18;;;;;;;61.87;30.83;;;;;;;3.97;94.43;101349.88;4998369;28;20197;-84
2022/03/02 08:16:47;;;;;;;75.83;38.17;;;;;;;4.00;94.35;101360.41;4998769;28;20186;-85
2022/03/02 08:19:13;;;;;;;58.50;30.57;;;;;;;4.02;93.96;101354.81;4997239;28;20535;-83
2022/03/02 08:21:42;;;;;;;45.67;25.37;;;;;;;3.99;94.24;101339.22;4996969;28;20656;-84
2022/03/02 08:24:12;;;;;;;46.27;26.17;;;;;;;4.05;94.17;101344.13;4994426;28;20677;-83
2022/03/02 08:26:39;;;;;;;40.07;23.20;;;;;;;4.15;93.38;101345.50;4994780;28;20169;-82
2022/03/02 08:29:09;;;;;;;40.53;23.63;;;;;;;4.16;92.65;101348.94;4993653;28;20174;-83
2022/03/02 08:31:40;;;;;;;39.33;23.20;;;;;;;4.13;93.27;101346.03;4994046;28;20177;-83
2022/03/02 08:34:09;;;;;;;39.67;22.40;;;;;;;3.89;93.13;101303.22;4993463;28;20197;-83
2022/03/02 08:36:37;;;;;;;37.40;21.20;;;;;;;3.94;92.86;101304.75;5000151;28;20224;-83
2022/03/02 08:39:14;;;;;;;31.23;19.30;;;;;;;4.12;91.95;101341.69;4995861;28;20193;-84
2022/03/02 08:41:40;;;;;;;40.40;22.73;;;;;;;4.13;93.12;101344.38;4993231;28;20188;-82
2022/03/02 08:44:09;;;;;;;40.77;22.73;;;;;;;4.23;93.91;101350.63;4993145;28;20592;-82
2022/03/02 08:46:35;;;;;;;35.97;20.67;;;;;;;4.28;93.90;101347.97;4994503;28;20216;-81
2022/03/02 08:49:00;;;;;;;39.53;21.93;;;;;;;4.35;93.71;101349.66;4997575;28;20217;-81
2022/03/02 08:51:26;;;;;;;34.60;20.83;;;;;;;4.22;91.38;101318.38;4993483;28;20185;-82
2022/03/02 08:53:58;;;;;;;37.90;20.40;;;;;;;4.21;91.69;101347.91;4992540;28;20203;-82
2022/03/02 08:56:25;;;;;;;36.83;19.47;;;;;;;4.19;92.11;101341.72;4992490;28;20276;-81
2022/03/02 08:58:52;;;;;;;38.93;22.03;;;;;;;4.28;93.44;101349.59;4993089;28;20173;-82
2022/03/02 09:01:19;;;;;;;38.37;22.20;;;;;;;4.36;93.95;101348.91;4994432;28;20177;-82
2022/03/02 09:03:48;;;;;;;39.27;21.70;;;;;;;4.29;92.25;101333.66;4994220;28;20238;-83
2022/03/02 09:06:16;;;;;;;32.93;19.77;;;;;;;4.34;91.70;101341.13;4996418;28;20695;-82
2022/03/02 09:08:41;;;;;;;39.23;22.10;;;;;;;4.06;92.28;101300.31;4997783;28;20228;-83
2022/03/02 09:11:08;;;;;;;37.10;20.63;;;;;;;4.20;93.14;101327.41;4995390;28;20173;-82
2022/03/02 09:13:36;;;;;;;42.33;22.17;;;;;;;4.18;92.24;101342.44;4997019;28;20869;-82
2022/03/02 09:16:03;;;;;;;39.23;21.07;;;;;;;4.21;92.42;101330.16;4998051;28;20197;-81
2022/03/02 09:18:28;;;;;;;32.57;19.47;;;;;;;4.23;91.80;101336.31;4994997;28;20177;-82
2022/03/02 09:21:01;;;;;;;36.17;19.67;;;;;;;4.18;91.83;101328.88;4992097;28;20243;-82
2022/03/02 09:23:31;;;;;;;38.63;21.30;;;;;;;4.18;92.25;101327.22;4992065;28;20178;-81
2022/03/02 09:26:04;;;;;;;35.77;20.17;;;;;;;4.20;93.14;101300.41;4992567;28;20216;-83
2022/03/02 09:28:33;;;;;;;32.73;20.00;;;;;;;4.31;93.14;101320.44;4992698;28;20184;-82
2022/03/02 09:31:02;;;;;;;34.97;19.60;;;;;;;4.35;92.14;101316.66;4992773;28;20181;-80
2022/03/02 09:33:28;;;;;;;35.47;19.70;;;;;;;4.28;91.58;101309.00;4992292;28;20185;-82
2022/03/02 09:35:55;;;;;;;33.27;19.80;;;;;;;4.34;90.56;101317.38;4993815;28;20201;-83
2022/03/02 09:38:23;;;;;;;32.87;19.87;;;;;;;4.37;91.96;101307.63;4993745;28;20209;-81
2022/03/02 09:40:50;;;;;;;37.53;19.30;;;;;;;4.32;90.03;101301.97;4992809;28;20178;-82
2022/03/02 09:43:22;;;;;;;29.33;18.03;;;;;;;4.45;89.90;101309.47;4991995;28;20189;-81
2022/03/02 09:45:55;;;;;;;31.80;19.20;;;;;;;4.43;89.96;101293.16;4995033;28;20548;-82
2022/03/02 09:48:57;;;;;;;33.67;19.33;;;;;;;4.45;88.74;101289.16;4996252;28;20229;-83
2022/03/02 09:51:24;;;;;;;30.47;17.03;;;;;;;4.28;89.00;101250.66;4971174;28;20197;-82
2022/03/02 09:53:53;;;;;;;29.53;17.80;;;;;;;4.65;89.03;101288.22;4987804;28;20216;-82
2022/03/02 09:56:22;;;;;;;36.83;21.00;;;;;;;4.71;90.77;101277.19;4992718;28;20212;-81
2022/03/02 09:58:51;;;;;;;34.93;20.67;;;;;;;5.06;90.58;101295.84;4994559;28;20662;-83
2022/03/02 10:01:21;;;;;;;33.63;20.90;;;;;;;5.26;87.21;101286.47;4992479;28;20259;-82
2022/03/02 10:03:49;;;;;;;35.43;20.00;;;;;;;5.30;86.56;101267.44;4992582;28;20305;-83
2022/03/02 10:06:17;;;;;;;34.43;18.70;;;;;;;5.46;86.52;101283.81;4992347;28;20184;-83
2022/03/02 10:08:51;;;;;;;36.60;20.63;;;;;;;5.44;84.94;101258.94;4992385;28;20256;-82
2022/03/02 10:11:23;;;;;;;31.87;19.73;;;;;;;5.69;86.25;101265.31;4991754;28;20184;-82
2022/03/02 10:13:50;;;;;;;33.47;20.27;;;;;;;5.80;84.64;101272.59;4994843;28;20178;-82
2022/03/02 10:16:24;;;;;;;27.75;16.33;;;;;;;5.74;84.40;101260.06;4998349;28;20181;-82
2022/03/02 10:18:56;;;;;;;32.47;18.27;;;;;;;5.88;83.38;101264.22;5011819;28;20172;-83
2022/03/02 10:21:28;;;;;;;35.72;18.73;;;;;;;5.94;82.20;101257.38;5006634;28;20196;-82
2022/03/02 10:23:57;;;;;;;27.50;17.65;;;;;;;5.91;82.05;101249.34;5003327;28;20170;-84
2022/03/02 10:26:25;;;;;;;24.75;15.85;;;;;;;5.99;80.73;101246.13;5007624;28;20180;-82
2022/03/02 10:29:03;;;;;;;24.63;14.75;;;;;;;6.09;81.46;101237.03;5005373;28;20193;-81
2022/03/02 10:31:48;;;;;;;22.80;14.97;;;;;;;6.19;80.48;101230.63;5002113;28;20177;-82
2022/03/02 10:34:25;;;;;;;21.42;15.25;;;;;;;6.21;79.67;101233.38;5000598;28;20212;-83
2022/03/02 10:37:27;;;;;;;23.17;14.23;;;;;;;6.43;78.33;101219.84;4995520;28;20220;-83
2022/03/02 10:40:10;;;;;;;19.27;12.50;;;;;;;6.68;75.24;101213.41;4993889;28;20200;-85
2022/03/02 10:42:44;;;;;;;22.83;14.98;;;;;;;6.86;75.41;101203.53;4995134;28;20193;-85
2022/03/02 10:45:14;;;;;;;22.90;13.88;;;;;;;7.11;73.25;101200.47;4995654;28;20243;-82
2022/03/02 10:48:11;;;;;;;15.13;10.50;;;;;;;6.98;71.66;101194.72;4995196;28;20272;-83
2022/03/02 10:50:39;;;;;;;20.45;12.82;;;;;;;7.25;72.29;101185.81;4994937;28;20220;-84
2022/03/02 10:53:07;;;;;;;20.83;12.27;;;;;;;7.49;72.01;101187.66;4994823;28;20166;-82
2022/03/02 10:55:34;;;;;;;22.10;13.82;;;;;;;7.82;69.73;101176.06;4997965;28;20215;-83
2022/03/02 10:58:05;;;;;;;18.52;11.73;;;;;;;8.04;67.41;101153.81;5001773;28;20640;-85
2022/03/02 11:00:31;;;;;;;15.20;10.00;;;;;;;8.22;66.04;101162.53;4996822;28;20252;-83
2022/03/02 11:02:59;;;;;;;13.85;8.95;;;;;;;8.12;63.02;101162.28;4996740;28;20207;-85
2022/03/02 11:05:28;;;;;;;14.95;10.07;;;;;;;8.13;63.49;101147.88;4995130;28;20173;-82
2022/03/02 11:07:54;;;;;;;18.00;11.50;;;;;;;8.04;63.80;101151.25;5005543;28;20239;-83
2022/03/02 11:10:22;;;;;;;16.38;9.80;;;;;;;7.92;63.75;101143.91;4995586;28;20178;-84
2022/03/02 11:12:49;;;;;;;14.55;9.63;;;;;;;7.82;62.59;101145.47;4994761;28;20320;-83
2022/03/02 11:15:17;;;;;;;12.55;9.00;;;;;;;7.77;64.61;101138.03;4994246;28;20205;-84
2022/03/02 11:18:00;;;;;;;17.20;10.52;;;;;;;7.75;65.61;101134.41;4994446;28;20188;-83
2022/03/02 11:20:30;;;;;;;15.38;9.43;;;;;;;7.80;63.55;101135.81;4994427;28;20192;-83
2022/03/02 11:22:59;;;;;;;16.85;8.80;;;;;;;7.75;63.26;101134.41;4994653;28;20188;-85
2022/03/02 11:25:45;;;;;;;15.55;8.77;;;;;;;7.62;62.83;101137.25;4994297;28;20173;-85